Time;durP1;ratioP1;P1;durP2;ratioP2;P2;SDS_P1;SDS_P2;PMS_P1;PMS_P2;Temp;Humidity;BMP_temperature;BMP_pressure;BME280_temperature;BME280_humidity;BME280_pressure;Samples;Min_cycle;Max_cycle;Signal;HPM_P1;HPM_P2
2023/05/26 00:00:06;;;;;;;11.90;11.30;;;;;;;;;;5042809;28;20105;-64
2023/05/26 00:02:32;;;;;;;12.35;11.75;;;;;;;;;;5038236;28;20033;-64
2023/05/26 00:04:59;;;;;;;12.50;11.90;;;;;;;;;;5048001;28;20502;-65
2023/05/26 00:07:24;;;;;;;12.35;11.75;;;;;;;;;;5041945;28;20033;-64
2023/05/26 00:09:50;;;;;;;12.10;11.50;;;;;;;;;;5036451;28;20380;-64
2023/05/26 00:12:16;;;;;;;12.70;12.10;;;;;;;;;;5043905;28;20114;-64
2023/05/26 00:14:42;;;;;;;12.18;11.57;;;;;;;;;;5040482;28;20027;-64
2023/05/26 00:17:07;;;;;;;12.60;12.00;;;;;;;;;;5041110;28;20104;-64
2023/05/26 00:19:35;;;;;;;11.82;11.32;;;;;;;;;;5043230;28;20052;-64
2023/05/26 00:22:01;;;;;;;12.10;11.50;;;;;;;;;;5035817;28;20017;-64
2023/05/26 00:24:26;;;;;;;11.80;11.30;;;;;;;;;;5038021;28;20083;-64
2023/05/26 00:26:51;;;;;;;12.20;11.60;;;;;;;;;;5043381;28;20071;-64
2023/05/26 00:29:17;;;;;;;12.43;11.82;;;;;;;;;;5033808;28;20453;-64
2023/05/26 00:31:42;;;;;;;12.30;11.70;;;;;;;;;;5043085;28;20531;-64
2023/05/26 00:34:08;;;;;;;12.48;11.88;;;;;;;;;;5035597;28;20087;-64
2023/05/26 00:36:33;;;;;;;12.50;11.90;;;;;;;;;;5030339;28;20492;-64
2023/05/26 00:38:58;;;;;;;13.30;12.60;;;;;;;;;;5032725;28;20030;-64
2023/05/26 00:41:24;;;;;;;12.43;11.82;;;;;;;;;;5038169;28;20120;-65
2023/05/26 00:43:51;;;;;;;12.07;11.48;;;;;;;;;;5041858;28;20025;-64
2023/05/26 00:46:16;;;;;;;12.70;12.10;;;;;;;;;;5042152;28;20063;-65
2023/05/26 00:48:41;;;;;;;12.10;11.50;;;;;;;;;;5038764;28;20045;-64
2023/05/26 00:51:06;;;;;;;12.57;11.98;;;;;;;;;;5035227;28;20487;-64
2023/05/26 00:53:32;;;;;;;11.70;11.20;;;;;;;;;;5032653;28;20017;-64
2023/05/26 00:55:57;;;;;;;12.15;11.55;;;;;;;;;;5019669;28;20074;-64
2023/05/26 00:58:24;;;;;;;11.73;11.23;;;;;;;;;;5029857;28;20101;-64
2023/05/26 01:00:49;;;;;;;12.00;11.40;;;;;;;;;;5033604;28;20551;-64
2023/05/26 01:03:16;;;;;;;12.30;11.70;;;;;;;;;;5033276;28;20030;-64
2023/05/26 01:05:42;;;;;;;12.13;11.52;;;;;;;;;;5032328;28;20136;-65
2023/05/26 01:08:07;;;;;;;13.77;12.98;;;;;;;;;;5031144;28;20163;-65
2023/05/26 01:10:33;;;;;;;12.50;11.90;;;;;;;;;;5034098;28;20366;-64
2023/05/26 01:12:58;;;;;;;13.02;12.32;;;;;;;;;;5039442;28;20477;-64
2023/05/26 01:15:26;;;;;;;12.40;11.80;;;;;;;;;;5038405;28;20009;-64
2023/05/26 01:17:52;;;;;;;12.00;11.40;;;;;;;;;;5039148;28;20103;-64
2023/05/26 01:20:33;;;;;;;11.90;11.40;;;;;;;;;;5039068;28;20037;-64
2023/05/26 01:23:01;;;;;;;12.63;12.02;;;;;;;;;;5035280;28;20396;-64
2023/05/26 01:25:46;;;;;;;12.55;11.95;;;;;;;;;;5032939;28;20036;-64
2023/05/26 01:28:14;;;;;;;12.43;11.82;;;;;;;;;;5031292;28;20636;-65
2023/05/26 01:30:41;;;;;;;13.60;12.90;;;;;;;;;;5033280;28;20484;-64
2023/05/26 01:33:07;;;;;;;12.35;11.75;;;;;;;;;;5035224;28;20013;-64
2023/05/26 01:35:32;;;;;;;12.73;12.13;;;;;;;;;;5037526;28;20020;-64
2023/05/26 01:37:59;;;;;;;12.25;11.65;;;;;;;;;;5034813;28;20038;-64
2023/05/26 01:40:24;;;;;;;12.35;11.75;;;;;;;;;;5030607;28;20079;-65
2023/05/26 01:43:12;;;;;;;11.82;11.32;;;;;;;;;;5034606;28;20017;-64
2023/05/26 01:45:44;;;;;;;12.50;11.90;;;;;;;;;;5029557;28;20033;-64
2023/05/26 01:48:10;;;;;;;12.27;11.68;;;;;;;;;;5029808;28;20030;-65
2023/05/26 01:50:58;;;;;;;12.50;11.90;;;;;;;;;;5044508;28;20017;-64
2023/05/26 01:53:25;;;;;;;12.95;12.25;;;;;;;;;;5035984;28;20087;-64
2023/05/26 01:55:54;;;;;;;12.32;11.73;;;;;;;;;;5034973;28;20032;-64
2023/05/26 01:58:21;;;;;;;12.38;11.77;;;;;;;;;;5030429;28;20440;-64
2023/05/26 02:00:47;;;;;;;12.00;11.40;;;;;;;;;;5033509;28;20551;-64
2023/05/26 02:03:12;;;;;;;13.02;12.32;;;;;;;;;;5046564;28;20041;-64
2023/05/26 02:05:37;;;;;;;12.50;11.90;;;;;;;;;;5032541;28;20099;-65
2023/05/26 02:08:03;;;;;;;12.48;11.88;;;;;;;;;;5038513;28;20664;-65
2023/05/26 02:10:28;;;;;;;12.20;11.60;;;;;;;;;;5049536;28;20020;-65
2023/05/26 02:12:53;;;;;;;11.98;11.43;;;;;;;;;;5046301;28;20036;-64
2023/05/26 02:15:19;;;;;;;12.25;11.65;;;;;;;;;;5034218;28;20040;-65
2023/05/26 02:17:44;;;;;;;12.35;11.75;;;;;;;;;;5033688;28;20084;-65
2023/05/26 02:20:10;;;;;;;12.57;11.98;;;;;;;;;;5036438;28;20028;-64
2023/05/26 02:22:36;;;;;;;12.07;11.48;;;;;;;;;;5036960;28;20031;-63
2023/05/26 02:25:01;;;;;;;12.13;11.52;;;;;;;;;;5037583;28;20013;-64
2023/05/26 02:27:26;;;;;;;12.55;11.90;;;;;;;;;;5036474;28;20040;-63
2023/05/26 02:29:52;;;;;;;12.57;11.98;;;;;;;;;;5042398;28;20029;-64
2023/05/26 02:32:17;;;;;;;12.75;12.15;;;;;;;;;;5032186;28;20496;-64
2023/05/26 02:34:43;;;;;;;12.70;12.10;;;;;;;;;;5038024;28;20526;-64
2023/05/26 02:37:08;;;;;;;13.07;12.38;;;;;;;;;;5031554;28;20025;-65
2023/05/26 02:39:33;;;;;;;12.38;11.77;;;;;;;;;;5030285;28;20441;-65
2023/05/26 02:41:58;;;;;;;12.23;11.63;;;;;;;;;;5036146;28;20052;-65
2023/05/26 02:44:24;;;;;;;11.70;11.20;;;;;;;;;;5038926;28;20009;-65
2023/05/26 02:46:49;;;;;;;12.20;11.60;;;;;;;;;;5036833;28;20091;-65
2023/05/26 02:49:14;;;;;;;12.13;11.52;;;;;;;;;;5038736;28;20025;-65
2023/05/26 02:51:40;;;;;;;12.30;11.70;;;;;;;;;;5042694;28;20070;-65
2023/05/26 02:54:05;;;;;;;12.35;11.75;;;;;;;;;;5046689;28;20028;-65
2023/05/26 02:56:30;;;;;;;12.07;11.48;;;;;;;;;;5038657;28;20025;-65
2023/05/26 02:58:55;;;;;;;12.13;11.52;;;;;;;;;;5036804;28;20035;-65
2023/05/26 03:01:21;;;;;;;11.95;11.35;;;;;;;;;;5041782;28;20086;-64
2023/05/26 03:03:47;;;;;;;11.85;11.25;;;;;;;;;;5040598;28;20021;-65
2023/05/26 03:06:12;;;;;;;12.30;11.70;;;;;;;;;;5026127;28;20029;-65
2023/05/26 03:08:38;;;;;;;11.60;11.10;;;;;;;;;;5031349;28;20018;-65
2023/05/26 03:11:03;;;;;;;12.20;11.60;;;;;;;;;;5049424;28;20032;-64
2023/05/26 03:13:28;;;;;;;12.82;12.23;;;;;;;;;;5033211;28;20021;-65
2023/05/26 03:15:54;;;;;;;12.05;11.45;;;;;;;;;;5041021;28;20021;-64
2023/05/26 03:18:19;;;;;;;12.57;11.98;;;;;;;;;;5035101;28;20116;-64
2023/05/26 03:20:48;;;;;;;12.30;11.70;;;;;;;;;;5041668;28;20033;-65
2023/05/26 03:23:16;;;;;;;12.40;11.80;;;;;;;;;;5031405;28;20366;-64
2023/05/26 03:25:41;;;;;;;12.07;11.48;;;;;;;;;;5045193;28;20030;-64
2023/05/26 03:28:07;;;;;;;12.27;11.68;;;;;;;;;;5043182;28;20017;-64
2023/05/26 03:30:32;;;;;;;12.15;11.55;;;;;;;;;;5041716;28;20139;-65
2023/05/26 03:32:57;;;;;;;12.10;11.50;;;;;;;;;;5035012;28;20018;-65
2023/05/26 03:35:23;;;;;;;12.13;11.52;;;;;;;;;;5045818;28;20025;-65
2023/05/26 03:37:49;;;;;;;11.38;10.88;;;;;;;;;;5040360;28;20113;-65
2023/05/26 03:40:14;;;;;;;11.48;10.98;;;;;;;;;;5037206;28;20504;-64
2023/05/26 03:42:40;;;;;;;11.65;11.15;;;;;;;;;;5036682;28;20023;-64
2023/05/26 03:45:05;;;;;;;12.95;12.35;;;;;;;;;;5034085;28;20064;-64
2023/05/26 03:47:30;;;;;;;11.80;11.30;;;;;;;;;;5039478;28;20021;-65
2023/05/26 03:49:56;;;;;;;12.00;11.43;;;;;;;;;;5040732;28;20022;-65
2023/05/26 03:52:21;;;;;;;11.88;11.38;;;;;;;;;;5036598;28;20275;-65
2023/05/26 03:54:46;;;;;;;11.80;11.30;;;;;;;;;;5038065;28;20029;-65
2023/05/26 03:57:12;;;;;;;12.00;11.50;;;;;;;;;;5032923;28;20021;-65
2023/05/26 03:59:37;;;;;;;12.20;11.60;;;;;;;;;;5036261;28;20425;-65
2023/05/26 04:02:04;;;;;;;12.18;11.63;;;;;;;;;;5033203;28;20056;-64
2023/05/26 04:04:30;;;;;;;11.85;11.35;;;;;;;;;;5028111;28;20083;-64
2023/05/26 04:06:56;;;;;;;11.68;11.18;;;;;;;;;;5032271;28;20033;-65
2023/05/26 04:09:21;;;;;;;12.27;11.70;;;;;;;;;;5034658;28;20033;-65
2023/05/26 04:11:46;;;;;;;12.00;11.50;;;;;;;;;;5033734;28;20067;-64
2023/05/26 04:14:12;;;;;;;12.50;11.90;;;;;;;;;;5030500;28;20336;-65
2023/05/26 04:16:37;;;;;;;11.98;11.48;;;;;;;;;;5033703;28;20167;-65
2023/05/26 04:19:02;;;;;;;12.20;11.68;;;;;;;;;;5032804;28;20029;-65
2023/05/26 04:21:28;;;;;;;12.43;11.83;;;;;;;;;;5029539;28;20032;-64
2023/05/26 04:23:53;;;;;;;12.27;11.70;;;;;;;;;;5032354;28;20251;-65
2023/05/26 04:26:18;;;;;;;12.15;11.65;;;;;;;;;;5032147;28;20468;-64
2023/05/26 04:28:44;;;;;;;11.80;11.30;;;;;;;;;;5038833;28;20497;-66
2023/05/26 04:31:10;;;;;;;11.80;11.30;;;;;;;;;;5027084;28;20049;-65
2023/05/26 04:33:39;;;;;;;11.85;11.35;;;;;;;;;;5039061;28;20127;-65
2023/05/26 04:36:08;;;;;;;11.93;11.43;;;;;;;;;;5034198;28;20009;-65
2023/05/26 04:38:34;;;;;;;11.98;11.48;;;;;;;;;;5035269;28;20021;-65
2023/05/26 04:41:00;;;;;;;11.98;11.48;;;;;;;;;;5043699;28;20484;-64
2023/05/26 04:43:25;;;;;;;11.70;11.20;;;;;;;;;;5032927;28;20388;-66
2023/05/26 04:45:51;;;;;;;12.55;11.95;;;;;;;;;;5043334;28;20116;-65
2023/05/26 04:48:17;;;;;;;12.23;11.63;;;;;;;;;;5039199;28;20101;-65
2023/05/26 04:50:42;;;;;;;12.00;11.50;;;;;;;;;;5032472;28;20108;-65
2023/05/26 04:53:07;;;;;;;12.03;11.53;;;;;;;;;;5041496;28;20539;-64
2023/05/26 04:55:36;;;;;;;11.80;11.30;;;;;;;;;;5032371;28;20302;-65
2023/05/26 04:58:03;;;;;;;12.27;11.75;;;;;;;;;;5039541;28;20027;-64
2023/05/26 05:00:31;;;;;;;11.95;11.45;;;;;;;;;;5040167;28;20113;-64
2023/05/26 05:02:56;;;;;;;11.98;11.48;;;;;;;;;;5042403;28;20226;-64
2023/05/26 05:05:21;;;;;;;11.85;11.35;;;;;;;;;;5033414;28;20504;-64
2023/05/26 05:07:50;;;;;;;11.80;11.30;;;;;;;;;;5040949;28;20024;-64
2023/05/26 05:10:16;;;;;;;12.40;11.80;;;;;;;;;;5039119;28;20258;-65
2023/05/26 05:12:41;;;;;;;12.00;11.50;;;;;;;;;;5039206;28;20031;-65
2023/05/26 05:15:06;;;;;;;12.00;11.50;;;;;;;;;;5034465;28;20014;-64
2023/05/26 05:17:32;;;;;;;12.02;11.52;;;;;;;;;;5031046;28;20268;-64
2023/05/26 05:19:57;;;;;;;12.37;11.83;;;;;;;;;;5030527;28;20111;-63
2023/05/26 05:22:22;;;;;;;12.07;11.57;;;;;;;;;;5033093;28;20289;-63
2023/05/26 05:24:48;;;;;;;12.07;11.57;;;;;;;;;;5029066;28;20303;-63
2023/05/26 05:27:13;;;;;;;12.47;11.87;;;;;;;;;;5025282;28;20279;-63
2023/05/26 05:29:38;;;;;;;11.80;11.30;;;;;;;;;;5016974;28;20115;-63
2023/05/26 05:32:03;;;;;;;11.87;11.37;;;;;;;;;;5023168;28;20037;-63
2023/05/26 05:34:29;;;;;;;12.00;11.50;;;;;;;;;;5020532;28;20282;-63
2023/05/26 05:36:54;;;;;;;12.60;12.00;;;;;;;;;;5029018;28;20026;-63
2023/05/26 05:39:19;;;;;;;11.82;11.32;;;;;;;;;;5023509;28;20480;-63
2023/05/26 05:41:45;;;;;;;11.98;11.48;;;;;;;;;;5017211;28;20469;-63
2023/05/26 05:44:10;;;;;;;12.10;11.60;;;;;;;;;;5029908;28;20048;-64
2023/05/26 05:46:35;;;;;;;12.33;11.83;;;;;;;;;;5023630;28;20036;-64
2023/05/26 05:49:01;;;;;;;11.60;11.10;;;;;;;;;;5027955;28;20048;-64
2023/05/26 05:51:26;;;;;;;11.97;11.47;;;;;;;;;;5029471;28;20333;-63
2023/05/26 05:53:51;;;;;;;11.83;11.33;;;;;;;;;;5033409;28;20388;-63
2023/05/26 05:56:17;;;;;;;11.65;11.15;;;;;;;;;;5029876;28;20053;-62
2023/05/26 05:58:42;;;;;;;11.90;11.40;;;;;;;;;;5029857;28;20029;-63
2023/05/26 06:01:07;;;;;;;12.05;11.55;;;;;;;;;;5028033;28;20025;-63
2023/05/26 06:03:33;;;;;;;12.02;11.52;;;;;;;;;;5029749;28;20443;-63
2023/05/26 06:05:58;;;;;;;12.10;11.60;;;;;;;;;;5031381;28;20049;-64
2023/05/26 06:08:23;;;;;;;12.30;11.80;;;;;;;;;;5018420;28;20026;-64
2023/05/26 06:10:48;;;;;;;12.37;11.83;;;;;;;;;;5012131;28;20025;-69
2023/05/26 06:13:14;;;;;;;12.10;11.60;;;;;;;;;;5019680;28;20265;-68
2023/05/26 06:15:39;;;;;;;12.68;12.07;;;;;;;;;;5044275;28;20278;-68
2023/05/26 06:18:05;;;;;;;12.80;12.20;;;;;;;;;;5017095;28;20036;-69
2023/05/26 06:20:30;;;;;;;12.30;11.80;;;;;;;;;;5014197;28;20381;-67
2023/05/26 06:22:55;;;;;;;11.87;11.37;;;;;;;;;;5025457;28;20401;-68
2023/05/26 06:25:20;;;;;;;12.00;11.50;;;;;;;;;;5026076;28;20262;-69
2023/05/26 06:27:46;;;;;;;12.57;11.98;;;;;;;;;;5027938;28;20383;-68
2023/05/26 06:30:11;;;;;;;12.37;11.87;;;;;;;;;;5020066;28;20025;-67
2023/05/26 06:32:36;;;;;;;12.10;11.60;;;;;;;;;;5023691;28;20294;-67
2023/05/26 06:35:02;;;;;;;12.13;11.63;;;;;;;;;;5020140;28;20491;-65
2023/05/26 06:37:27;;;;;;;11.88;11.38;;;;;;;;;;5026123;28;20419;-67
2023/05/26 06:39:53;;;;;;;12.30;11.80;;;;;;;;;;5024773;28;20088;-65
2023/05/26 06:42:18;;;;;;;11.60;11.10;;;;;;;;;;5024785;28;20148;-67
2023/05/26 06:44:43;;;;;;;11.57;11.07;;;;;;;;;;5028594;28;20273;-66
2023/05/26 06:47:09;;;;;;;12.23;11.73;;;;;;;;;;5021614;28;20033;-67
2023/05/26 06:49:34;;;;;;;12.25;11.75;;;;;;;;;;5020508;28;20776;-64
2023/05/26 06:52:00;;;;;;;11.68;11.18;;;;;;;;;;5019615;28;20045;-67
2023/05/26 06:54:25;;;;;;;12.00;11.50;;;;;;;;;;5022490;28;20503;-65
2023/05/26 06:56:50;;;;;;;12.30;11.77;;;;;;;;;;5020115;28;20607;-68
2023/05/26 06:59:16;;;;;;;11.75;11.25;;;;;;;;;;5023144;28;20496;-66
2023/05/26 07:01:41;;;;;;;12.23;11.73;;;;;;;;;;5021848;28;20103;-67
2023/05/26 07:04:06;;;;;;;12.20;11.70;;;;;;;;;;4979288;28;1233647;-67
2023/05/26 07:06:32;;;;;;;12.20;11.70;;;;;;;;;;5024382;28;20036;-68
2023/05/26 07:08:57;;;;;;;12.05;11.55;;;;;;;;;;5018681;28;20310;-66
2023/05/26 07:11:23;;;;;;;12.23;11.73;;;;;;;;;;5022570;28;20026;-68
2023/05/26 07:13:50;;;;;;;12.70;12.10;;;;;;;;;;5018098;28;20283;-68
2023/05/26 07:16:15;;;;;;;12.13;11.63;;;;;;;;;;5022602;28;20021;-67
2023/05/26 07:18:41;;;;;;;12.25;11.75;;;;;;;;;;5020133;28;20041;-67
2023/05/26 07:21:06;;;;;;;12.23;11.73;;;;;;;;;;5016534;28;20022;-68
2023/05/26 07:23:32;;;;;;;12.10;11.60;;;;;;;;;;5022455;28;20369;-67
2023/05/26 07:25:57;;;;;;;12.13;11.63;;;;;;;;;;5020812;28;20410;-67
2023/05/26 07:28:22;;;;;;;12.13;11.63;;;;;;;;;;5020110;28;20625;-70
2023/05/26 07:30:48;;;;;;;12.68;12.07;;;;;;;;;;5023145;28;20745;-69
2023/05/26 07:33:14;;;;;;;11.82;11.32;;;;;;;;;;5021183;28;20041;-68
2023/05/26 07:35:39;;;;;;;12.10;11.60;;;;;;;;;;5022477;28;20021;-67
2023/05/26 07:38:05;;;;;;;12.73;12.13;;;;;;;;;;5025108;28;20159;-66
2023/05/26 07:40:34;;;;;;;12.73;12.13;;;;;;;;;;5020609;28;20025;-68
2023/05/26 07:42:59;;;;;;;12.50;11.90;;;;;;;;;;5024166;28;20109;-68
2023/05/26 07:45:25;;;;;;;12.88;12.27;;;;;;;;;;5020525;28;20520;-67
2023/05/26 07:47:50;;;;;;;12.68;12.07;;;;;;;;;;5032395;28;20033;-65
2023/05/26 07:50:15;;;;;;;13.43;12.83;;;;;;;;;;5023725;28;20546;-67
2023/05/26 07:52:41;;;;;;;12.70;12.10;;;;;;;;;;5020723;28;20281;-67
2023/05/26 07:55:06;;;;;;;13.18;12.57;;;;;;;;;;5021420;28;20108;-67
2023/05/26 07:57:31;;;;;;;12.40;11.80;;;;;;;;;;5019332;28;20106;-67
2023/05/26 07:59:57;;;;;;;13.15;12.55;;;;;;;;;;5019371;28;20033;-65
2023/05/26 08:02:22;;;;;;;12.77;12.18;;;;;;;;;;5027670;28;20024;-68
2023/05/26 08:04:48;;;;;;;12.70;12.10;;;;;;;;;;5030882;28;20124;-66
2023/05/26 08:07:13;;;;;;;13.95;13.25;;;;;;;;;;5023829;28;20018;-67
2023/05/26 08:09:38;;;;;;;12.80;12.20;;;;;;;;;;5027932;28;20086;-66
2023/05/26 08:12:06;;;;;;;13.07;12.47;;;;;;;;;;5025647;28;20389;-67
2023/05/26 08:14:31;;;;;;;12.95;12.35;;;;;;;;;;5023733;28;20298;-68
2023/05/26 08:16:58;;;;;;;13.27;12.68;;;;;;;;;;5024256;28;20067;-68
2023/05/26 08:19:23;;;;;;;12.63;12.02;;;;;;;;;;5029818;28;20073;-67
2023/05/26 08:21:48;;;;;;;12.73;12.13;;;;;;;;;;5025876;28;20455;-69
2023/05/26 08:24:14;;;;;;;13.48;12.88;;;;;;;;;;5026149;28;20018;-69
2023/05/26 08:26:39;;;;;;;12.63;12.02;;;;;;;;;;5021567;28;20021;-69
2023/05/26 08:29:06;;;;;;;12.63;12.02;;;;;;;;;;5029541;28;20096;-68
2023/05/26 08:31:31;;;;;;;12.63;12.02;;;;;;;;;;5023359;28;20747;-67
2023/05/26 08:33:56;;;;;;;12.90;12.30;;;;;;;;;;5019071;28;20026;-68
2023/05/26 08:36:22;;;;;;;13.10;12.50;;;;;;;;;;5026353;28;20030;-67
2023/05/26 08:38:47;;;;;;;12.32;11.73;;;;;;;;;;5027528;28;20408;-69
2023/05/26 08:41:16;;;;;;;12.90;12.30;;;;;;;;;;5031106;28;20473;-69
2023/05/26 08:44:07;;;;;;;12.77;12.18;;;;;;;;;;5021726;28;20778;-68
2023/05/26 08:46:32;;;;;;;13.18;12.57;;;;;;;;;;5016134;28;20045;-68
2023/05/26 08:48:58;;;;;;;12.97;12.37;;;;;;;;;;5025408;28;20029;-68
2023/05/26 08:51:23;;;;;;;12.70;12.10;;;;;;;;;;5023412;28;20831;-68
2023/05/26 08:53:49;;;;;;;13.77;13.07;;;;;;;;;;5018749;28;20150;-68
2023/05/26 08:56:15;;;;;;;13.25;12.65;;;;;;;;;;5025975;28;20025;-67
2023/05/26 08:58:42;;;;;;;12.13;11.57;;;;;;;;;;5024664;28;20392;-68
2023/05/26 09:01:08;;;;;;;13.32;12.73;;;;;;;;;;5021894;28;20087;-69
2023/05/26 09:03:33;;;;;;;13.20;12.60;;;;;;;;;;5029819;28;20420;-69
2023/05/26 09:06:00;;;;;;;12.38;11.77;;;;;;;;;;5026007;28;20053;-69
2023/05/26 09:08:25;;;;;;;13.13;12.52;;;;;;;;;;5026792;28;20075;-68
2023/05/26 09:10:50;;;;;;;12.68;12.07;;;;;;;;;;5023059;28;20515;-69
2023/05/26 09:13:18;;;;;;;13.38;12.75;;;;;;;;;;5022975;28;20044;-68
2023/05/26 09:15:50;;;;;;;13.25;12.65;;;;;;;;;;5026844;28;20057;-68
2023/05/26 09:18:16;;;;;;;13.43;12.82;;;;;;;;;;5026416;28;20036;-68
2023/05/26 09:20:48;;;;;;;12.70;12.10;;;;;;;;;;5022331;28;20464;-69
2023/05/26 09:23:17;;;;;;;13.25;12.65;;;;;;;;;;5025752;28;20017;-69
2023/05/26 09:25:43;;;;;;;13.02;12.43;;;;;;;;;;5023295;28;20032;-69
2023/05/26 09:28:11;;;;;;;12.55;11.95;;;;;;;;;;5024546;28;20025;-68
2023/05/26 09:30:40;;;;;;;13.23;12.63;;;;;;;;;;5026134;28;20493;-68
2023/05/26 09:33:07;;;;;;;12.90;12.30;;;;;;;;;;5019395;28;20896;-68
2023/05/26 09:35:43;;;;;;;13.07;12.48;;;;;;;;;;5021333;28;20041;-70
2023/05/26 09:38:09;;;;;;;13.23;12.63;;;;;;;;;;5023701;28;20030;-67
2023/05/26 09:40:39;;;;;;;12.73;12.13;;;;;;;;;;5025817;28;20041;-67
2023/05/26 09:43:04;;;;;;;12.85;12.25;;;;;;;;;;5025861;28;20053;-67
2023/05/26 09:45:36;;;;;;;11.90;11.40;;;;;;;;;;5033069;28;20055;-67
2023/05/26 09:48:05;;;;;;;12.43;11.82;;;;;;;;;;5026061;28;20100;-63
2023/05/26 09:50:32;;;;;;;13.38;12.73;;;;;;;;;;5020464;28;20456;-62
2023/05/26 09:52:59;;;;;;;12.45;11.85;;;;;;;;;;5030343;28;20102;-62
2023/05/26 09:55:24;;;;;;;12.27;11.68;;;;;;;;;;5033094;28;20083;-62
2023/05/26 09:57:51;;;;;;;14.27;13.57;;;;;;;;;;5021206;28;20025;-63
2023/05/26 10:00:17;;;;;;;13.00;12.40;;;;;;;;;;5023640;28;20034;-62
2023/05/26 10:02:43;;;;;;;11.70;11.20;;;;;;;;;;5018753;28;20040;-65
2023/05/26 10:05:09;;;;;;;13.38;12.77;;;;;;;;;;5026416;28;20041;-66
2023/05/26 10:07:36;;;;;;;12.77;12.18;;;;;;;;;;5022853;28;20406;-67
2023/05/26 10:10:03;;;;;;;12.77;12.18;;;;;;;;;;5028459;28;20029;-67
2023/05/26 10:12:30;;;;;;;12.75;12.15;;;;;;;;;;5006207;28;20036;-68
2023/05/26 10:14:56;;;;;;;12.90;12.30;;;;;;;;;;5023310;28;20028;-67
2023/05/26 10:17:22;;;;;;;13.40;12.75;;;;;;;;;;5021231;28;20485;-68
2023/05/26 10:19:47;;;;;;;13.02;12.43;;;;;;;;;;5017218;28;20041;-68
2023/05/26 10:22:16;;;;;;;14.25;13.55;;;;;;;;;;5024893;28;20022;-66
2023/05/26 10:24:45;;;;;;;12.68;12.07;;;;;;;;;;5020369;28;20022;-68
2023/05/26 10:27:19;;;;;;;13.82;13.13;;;;;;;;;;5025473;28;20026;-65
2023/05/26 10:29:58;;;;;;;13.32;12.68;;;;;;;;;;5020059;28;20038;-66
2023/05/26 10:32:42;;;;;;;12.63;12.02;;;;;;;;;;5025293;28;20500;-66
2023/05/26 10:35:26;;;;;;;13.00;12.40;;;;;;;;;;5021598;28;20045;-66
2023/05/26 10:38:03;;;;;;;12.85;12.25;;;;;;;;;;5012674;28;20036;-66
2023/05/26 10:40:30;;;;;;;13.25;12.63;;;;;;;;;;5020316;28;20075;-69
2023/05/26 10:43:00;;;;;;;12.68;12.07;;;;;;;;;;5022645;28;20431;-67
2023/05/26 10:45:29;;;;;;;13.23;12.63;;;;;;;;;;5027206;28;20032;-67
2023/05/26 10:47:56;;;;;;;12.98;12.38;;;;;;;;;;5021252;28;20025;-66
2023/05/26 10:50:21;;;;;;;13.02;12.43;;;;;;;;;;5048680;28;20056;-67
2023/05/26 10:52:48;;;;;;;12.23;11.63;;;;;;;;;;5021297;28;20116;-67
2023/05/26 10:55:29;;;;;;;13.38;12.73;;;;;;;;;;5020779;28;20281;-66
2023/05/26 10:57:54;;;;;;;12.52;11.93;;;;;;;;;;5022282;28;20388;-66
2023/05/26 11:00:26;;;;;;;12.52;11.93;;;;;;;;;;5025225;28;20036;-67
2023/05/26 11:02:51;;;;;;;12.50;11.90;;;;;;;;;;5024483;28;20048;-67
2023/05/26 11:05:30;;;;;;;13.82;13.13;;;;;;;;;;5024374;28;20421;-67
2023/05/26 11:07:55;;;;;;;13.85;13.15;;;;;;;;;;5020314;28;20025;-67
2023/05/26 11:10:21;;;;;;;12.93;12.32;;;;;;;;;;5024439;28;20043;-66
2023/05/26 11:12:54;;;;;;;13.63;12.93;;;;;;;;;;5024051;28;20452;-68
2023/05/26 11:15:32;;;;;;;12.70;12.10;;;;;;;;;;5015292;28;20025;-69
2023/05/26 11:18:00;;;;;;;13.32;12.68;;;;;;;;;;5019633;28;21467;-68
2023/05/26 11:20:25;;;;;;;13.40;12.75;;;;;;;;;;5021838;28;20025;-69
2023/05/26 11:22:52;;;;;;;12.40;11.80;;;;;;;;;;5022291;28;20048;-69
2023/05/26 11:25:17;;;;;;;12.95;12.35;;;;;;;;;;5019745;28;20448;-68
2023/05/26 11:27:49;;;;;;;13.70;13.00;;;;;;;;;;5021625;28;20030;-69
2023/05/26 11:30:15;;;;;;;13.95;13.25;;;;;;;;;;5021991;28;20413;-68
2023/05/26 11:32:47;;;;;;;13.00;12.40;;;;;;;;;;5019446;28;20109;-67
2023/05/26 11:35:22;;;;;;;13.00;12.40;;;;;;;;;;5021861;28;20037;-67
2023/05/26 11:37:47;;;;;;;14.48;13.77;;;;;;;;;;5030792;28;20127;-69
2023/05/26 11:40:13;;;;;;;12.70;12.10;;;;;;;;;;5032076;28;20496;-69
2023/05/26 11:42:38;;;;;;;12.88;12.27;;;;;;;;;;5023373;28;20018;-70
2023/05/26 11:45:04;;;;;;;12.70;12.10;;;;;;;;;;5023124;28;20030;-64
2023/05/26 11:47:30;;;;;;;12.30;11.70;;;;;;;;;;5030548;28;20063;-69
2023/05/26 11:50:05;;;;;;;12.98;12.38;;;;;;;;;;5030501;28;20025;-66
2023/05/26 11:52:30;;;;;;;12.10;11.52;;;;;;;;;;5028929;28;20497;-63
2023/05/26 11:54:57;;;;;;;12.20;11.60;;;;;;;;;;5032130;28;20053;-63
2023/05/26 11:57:30;;;;;;;11.98;11.43;;;;;;;;;;5026477;28;20666;-67
2023/05/26 11:59:56;;;;;;;11.70;11.20;;;;;;;;;;5030737;28;20048;-68
2023/05/26 12:02:21;;;;;;;12.38;11.77;;;;;;;;;;5032317;28;20417;-67
2023/05/26 12:04:47;;;;;;;12.40;11.80;;;;;;;;;;5031675;28;20054;-67
2023/05/26 12:07:23;;;;;;;11.77;11.27;;;;;;;;;;5033446;28;20257;-67
2023/05/26 12:10:01;;;;;;;11.90;11.35;;;;;;;;;;5031088;28;20035;-68
2023/05/26 12:12:27;;;;;;;11.43;10.93;;;;;;;;;;5029602;28;20021;-68
2023/05/26 12:15:01;;;;;;;12.18;11.57;;;;;;;;;;5064838;28;20029;-68
2023/05/26 12:17:27;;;;;;;12.20;11.60;;;;;;;;;;5026547;28;20033;-67
2023/05/26 12:19:55;;;;;;;11.65;11.15;;;;;;;;;;5032963;28;20104;-68
2023/05/26 12:22:30;;;;;;;12.07;11.52;;;;;;;;;;5033132;28;20080;-67
2023/05/26 12:24:59;;;;;;;11.75;11.25;;;;;;;;;;5024829;28;20014;-67
2023/05/26 12:27:34;;;;;;;12.63;12.02;;;;;;;;;;5024000;28;20021;-68
2023/05/26 12:29:59;;;;;;;11.65;11.15;;;;;;;;;;5032534;28;20637;-67
2023/05/26 12:32:24;;;;;;;12.80;12.20;;;;;;;;;;5031852;28;20033;-69
2023/05/26 12:34:50;;;;;;;12.10;11.50;;;;;;;;;;5030321;28;20022;-69
2023/05/26 12:37:15;;;;;;;12.50;11.90;;;;;;;;;;5032033;28;20297;-68
2023/05/26 12:39:40;;;;;;;12.02;11.45;;;;;;;;;;5032104;28;20040;-67
2023/05/26 12:42:06;;;;;;;12.50;11.90;;;;;;;;;;5030156;28;20099;-67
2023/05/26 12:44:32;;;;;;;13.20;12.60;;;;;;;;;;5030501;28;20305;-68
2023/05/26 12:46:57;;;;;;;13.48;12.82;;;;;;;;;;5030580;28;20045;-68
2023/05/26 12:49:22;;;;;;;12.57;11.98;;;;;;;;;;5032212;28;20017;-68
2023/05/26 12:51:48;;;;;;;13.20;12.57;;;;;;;;;;5030898;28;20552;-67
2023/05/26 12:54:13;;;;;;;12.82;12.23;;;;;;;;;;5032083;28;20067;-68
2023/05/26 12:56:38;;;;;;;13.27;12.60;;;;;;;;;;5031464;28;20032;-67
2023/05/26 12:59:05;;;;;;;12.27;11.68;;;;;;;;;;5032313;28;20029;-68
2023/05/26 13:01:30;;;;;;;13.18;12.48;;;;;;;;;;5029027;28;20026;-68
2023/05/26 13:03:55;;;;;;;12.73;12.13;;;;;;;;;;5031940;28;20116;-68
2023/05/26 13:06:21;;;;;;;12.50;11.90;;;;;;;;;;5032040;28;20039;-68
2023/05/26 13:08:46;;;;;;;12.05;11.45;;;;;;;;;;5025995;28;20028;-68
2023/05/26 13:11:11;;;;;;;13.35;12.65;;;;;;;;;;5031476;28;20416;-67
2023/05/26 13:13:37;;;;;;;12.00;11.40;;;;;;;;;;5045467;28;20116;-67
2023/05/26 13:16:04;;;;;;;13.00;12.35;;;;;;;;;;5030183;28;20029;-67
2023/05/26 13:18:29;;;;;;;12.75;12.15;;;;;;;;;;5026850;28;20026;-68
2023/05/26 13:20:54;;;;;;;13.48;12.77;;;;;;;;;;5024898;28;20041;-67
2023/05/26 13:23:20;;;;;;;13.05;12.38;;;;;;;;;;5030344;28;20031;-68
2023/05/26 13:25:45;;;;;;;12.40;11.80;;;;;;;;;;5029070;28;20169;-68
2023/05/26 13:28:10;;;;;;;12.65;12.05;;;;;;;;;;5050349;28;20013;-68
2023/05/26 13:30:36;;;;;;;12.65;12.05;;;;;;;;;;5043188;28;20424;-68
2023/05/26 13:33:03;;;;;;;12.50;11.90;;;;;;;;;;5035366;28;20028;-67
2023/05/26 13:35:30;;;;;;;12.25;11.65;;;;;;;;;;5047879;28;20488;-67
2023/05/26 13:37:55;;;;;;;12.45;11.85;;;;;;;;;;5030985;28;20037;-68
2023/05/26 13:40:21;;;;;;;12.10;11.50;;;;;;;;;;5034486;28;20021;-68
2023/05/26 13:42:46;;;;;;;12.35;11.75;;;;;;;;;;5020539;28;20092;-67
2023/05/26 13:45:12;;;;;;;12.40;11.80;;;;;;;;;;5032048;28;20018;-68
2023/05/26 13:47:38;;;;;;;12.55;11.95;;;;;;;;;;5032910;28;20021;-68
2023/05/26 13:50:03;;;;;;;12.38;11.77;;;;;;;;;;5029332;28;20026;-68
2023/05/26 13:52:31;;;;;;;12.25;11.65;;;;;;;;;;5030195;28;20033;-68
2023/05/26 13:54:56;;;;;;;12.20;11.60;;;;;;;;;;5032475;28;20028;-67
2023/05/26 13:57:22;;;;;;;12.68;12.07;;;;;;;;;;5031421;28;20433;-67
2023/05/26 13:59:47;;;;;;;13.55;12.85;;;;;;;;;;5031627;28;20044;-68
2023/05/26 14:02:12;;;;;;;12.20;11.60;;;;;;;;;;5039905;28;20024;-68
2023/05/26 14:04:39;;;;;;;12.70;12.10;;;;;;;;;;5034401;28;20045;-68
2023/05/26 14:07:04;;;;;;;12.38;11.77;;;;;;;;;;5039126;28;20018;-68
2023/05/26 14:09:30;;;;;;;12.10;11.50;;;;;;;;;;5029507;28;20028;-67
2023/05/26 14:11:55;;;;;;;11.80;11.30;;;;;;;;;;5031030;28;20040;-67